createdAt,value
2018-11-29T00:00:57.610Z,7.84
2018-11-29T00:02:06.274Z,7.81
2018-11-29T00:03:14.945Z,7.87
2018-11-29T00:04:23.606Z,7.88
2018-11-29T00:05:32.292Z,7.81
2018-11-29T00:06:40.955Z,7.88
2018-11-29T00:07:49.634Z,7.81
2018-11-29T00:08:58.298Z,7.83
2018-11-29T00:10:06.969Z,7.85
2018-11-29T00:11:15.639Z,7.83
2018-11-29T00:12:24.306Z,7.85
2018-11-29T00:13:32.986Z,7.91
2018-11-29T00:14:41.680Z,7.85
2018-11-29T00:15:50.353Z,7.84
2018-11-29T00:16:59.060Z,7.88
2018-11-29T00:18:07.742Z,7.95
2018-11-29T00:19:16.411Z,7.9
2018-11-29T00:20:25.090Z,7.9
2018-11-29T00:21:33.749Z,7.9
2018-11-29T00:22:42.422Z,7.91
2018-11-29T00:23:51.084Z,7.98
2018-11-29T00:24:59.753Z,7.93
2018-11-29T00:26:08.675Z,7.95
2018-11-29T00:27:17.646Z,7.99
2018-11-29T00:28:26.311Z,8.05
2018-11-29T00:29:34.977Z,7.95
2018-11-29T00:30:43.642Z,7.93
2018-11-29T00:31:52.309Z,8.01
2018-11-29T00:33:00.988Z,8.02
2018-11-29T00:34:09.646Z,8.06
2018-11-29T00:35:18.573Z,7.98
2018-11-29T00:36:27.232Z,8.03
2018-11-29T00:37:35.908Z,8.05
2018-11-29T00:38:44.570Z,8.05
2018-11-29T00:39:53.249Z,8.05
2018-11-29T00:41:01.910Z,8.06
2018-11-29T00:42:10.588Z,8.11
2018-11-29T00:43:19.261Z,8.03
2018-11-29T00:44:27.931Z,8.03
2018-11-29T00:45:36.616Z,8.01
2018-11-29T00:46:45.539Z,8.16
2018-11-29T00:47:54.216Z,8.14
2018-11-29T00:49:02.883Z,8.13
2018-11-29T00:50:11.556Z,8.11
2018-11-29T00:51:20.474Z,8.21
2018-11-29T00:52:29.144Z,8.18
2018-11-29T00:53:38.071Z,8.18
2018-11-29T00:54:46.777Z,8.16
2018-11-29T00:55:55.436Z,8.18
2018-11-29T00:57:04.102Z,8.13
2018-11-29T00:58:12.770Z,8.17
2018-11-29T00:59:21.447Z,8.17
2018-11-29T01:00:30.112Z,8.26
2018-11-29T01:01:38.789Z,8.23
2018-11-29T01:02:47.460Z,8.2
2018-11-29T01:03:56.136Z,8.27
2018-11-29T01:05:04.799Z,8.26
2018-11-29T01:06:13.470Z,8.27
2018-11-29T01:07:22.135Z,8.31
2018-11-29T01:08:30.806Z,8.27
2018-11-29T01:09:39.489Z,8.26
2018-11-29T01:10:48.155Z,8.27
2018-11-29T01:11:56.821Z,8.28
2018-11-29T01:13:05.489Z,8.35
2018-11-29T01:14:14.160Z,8.35
2018-11-29T01:15:23.102Z,8.32
2018-11-29T01:16:31.771Z,8.26
2018-11-29T01:17:40.436Z,8.38
2018-11-29T01:18:49.111Z,8.31
2018-11-29T01:19:57.777Z,8.27
2018-11-29T01:21:06.452Z,8.31
2018-11-29T01:22:15.116Z,8.41
2018-11-29T01:23:23.788Z,8.31
2018-11-29T01:24:32.452Z,8.31
2018-11-29T01:25:41.126Z,8.36
2018-11-29T01:26:49.797Z,8.35
2018-11-29T01:27:58.465Z,8.44
2018-11-29T01:29:07.134Z,8.38
2018-11-29T01:30:15.820Z,8.36
2018-11-29T01:31:24.773Z,8.39
2018-11-29T01:32:33.436Z,8.39
2018-11-29T01:33:42.353Z,8.35
2018-11-29T01:34:51.019Z,8.36
2018-11-29T01:35:59.699Z,8.38
2018-11-29T01:37:08.363Z,8.39
2018-11-29T01:38:17.039Z,8.38
2018-11-29T01:39:25.705Z,8.36
2018-11-29T01:40:34.383Z,8.41
2018-11-29T01:41:43.058Z,8.36
2018-11-29T01:42:51.727Z,8.42
2018-11-29T01:44:00.402Z,8.44
2018-11-29T01:45:09.068Z,8.38
2018-11-29T01:46:17.742Z,8.38
2018-11-29T01:47:26.414Z,8.42
2018-11-29T01:48:35.090Z,8.38
2018-11-29T01:49:43.770Z,8.36
2018-11-29T01:50:52.443Z,8.36
2018-11-29T01:52:01.112Z,8.36
2018-11-29T01:53:09.778Z,8.39
2018-11-29T01:54:18.451Z,8.42
2018-11-29T01:55:27.115Z,8.42
2018-11-29T01:56:35.786Z,8.42
2018-11-29T01:57:44.718Z,8.44
2018-11-29T01:58:53.397Z,8.42
2018-11-29T02:00:02.064Z,8.5
2018-11-29T02:01:10.734Z,8.46
2018-11-29T02:02:19.413Z,8.5
2018-11-29T02:03:28.122Z,8.53
2018-11-29T02:04:36.797Z,8.61
2018-11-29T02:05:45.476Z,8.45
2018-11-29T02:06:54.143Z,8.54
2018-11-29T02:08:02.815Z,8.53
2018-11-29T02:09:11.773Z,8.57
2018-11-29T02:10:20.700Z,8.59
2018-11-29T02:11:29.371Z,8.54
2018-11-29T02:12:38.083Z,8.61
2018-11-29T02:13:46.767Z,8.61
2018-11-29T02:14:55.438Z,8.59
2018-11-29T02:16:04.114Z,8.6
2018-11-29T02:17:12.789Z,8.64
2018-11-29T02:18:21.971Z,8.68
2018-11-29T02:19:30.644Z,8.71
2018-11-29T02:20:39.314Z,8.71
2018-11-29T02:21:47.993Z,8.68
2018-11-29T02:22:56.658Z,8.61
2018-11-29T02:24:05.329Z,8.61
2018-11-29T02:25:14.006Z,8.66
2018-11-29T02:26:22.692Z,8.68
2018-11-29T02:27:31.359Z,8.61
2018-11-29T02:28:40.034Z,8.61
2018-11-29T02:29:48.702Z,8.61
2018-11-29T02:30:57.379Z,8.63
2018-11-29T02:32:06.566Z,8.57
2018-11-29T02:33:15.253Z,8.64
2018-11-29T02:34:23.927Z,8.64
2018-11-29T02:35:32.611Z,8.66
2018-11-29T02:36:41.301Z,8.66
2018-11-29T02:37:50.236Z,8.64
2018-11-29T02:38:58.902Z,8.61
2018-11-29T02:40:07.587Z,8.66
2018-11-29T02:41:16.782Z,8.66
2018-11-29T02:42:25.720Z,8.63
2018-11-29T02:43:34.395Z,8.61
2018-11-29T02:44:43.089Z,8.57
2018-11-29T02:45:51.765Z,8.61
2018-11-29T02:47:00.439Z,8.68
2018-11-29T02:48:09.653Z,8.63
2018-11-29T02:49:18.606Z,8.75
2018-11-29T02:50:27.300Z,8.71
2018-11-29T02:51:36.282Z,8.75
2018-11-29T02:52:45.236Z,8.75
2018-11-29T02:53:53.903Z,8.77
2018-11-29T02:55:02.597Z,8.82
2018-11-29T02:56:11.528Z,8.77
2018-11-29T02:57:20.203Z,8.84
2018-11-29T02:58:29.132Z,8.87
2018-11-29T02:59:37.795Z,8.86
2018-11-29T03:00:46.468Z,8.93
2018-11-29T03:01:55.143Z,8.97
2018-11-29T03:03:03.840Z,8.97
2018-11-29T03:04:12.496Z,8.93
2018-11-29T03:05:21.188Z,9
2018-11-29T03:06:29.896Z,8.89
2018-11-29T03:07:38.582Z,8.97
2018-11-29T03:08:47.519Z,9.02
2018-11-29T03:09:56.195Z,8.9
2018-11-29T03:11:04.871Z,8.95
2018-11-29T03:12:13.556Z,9.03
2018-11-29T03:13:22.487Z,9
2018-11-29T03:14:31.154Z,9.02
2018-11-29T03:15:39.820Z,9.11
2018-11-29T03:16:48.505Z,9.12
2018-11-29T03:17:57.455Z,9.08
2018-11-29T03:19:06.382Z,9.15
2018-11-29T03:20:15.070Z,9.19
2018-11-29T03:21:23.995Z,9.21
2018-11-29T03:22:32.677Z,9.19
2018-11-29T03:23:41.358Z,9.16
2018-11-29T03:24:50.295Z,9.13
2018-11-29T03:25:58.981Z,9.15
2018-11-29T03:27:07.918Z,9.18
2018-11-29T03:28:16.845Z,9.24
2018-11-29T03:29:25.525Z,9.24
2018-11-29T03:30:34.196Z,9.29
2018-11-29T03:31:43.152Z,9.36
2018-11-29T03:32:52.109Z,9.21
2018-11-29T03:34:01.068Z,9.29
2018-11-29T03:35:10.261Z,9.27
2018-11-29T03:36:19.224Z,9.3
2018-11-29T03:37:27.912Z,9.29
2018-11-29T03:38:36.588Z,9.4
2018-11-29T03:39:45.280Z,9.36
2018-11-29T03:40:53.950Z,9.36
2018-11-29T03:42:02.882Z,9.44
2018-11-29T03:43:11.564Z,9.44
2018-11-29T03:44:20.244Z,9.37
2018-11-29T03:45:28.924Z,9.42
2018-11-29T03:46:37.861Z,9.44
2018-11-29T03:47:46.551Z,9.44
2018-11-29T03:48:55.218Z,9.45
2018-11-29T03:50:04.170Z,9.48
2018-11-29T03:51:13.100Z,9.39
2018-11-29T03:52:21.781Z,9.42
2018-11-29T03:53:30.470Z,9.37
2018-11-29T03:54:39.141Z,9.4
2018-11-29T03:55:47.814Z,9.44
2018-11-29T03:56:56.493Z,9.45
2018-11-29T03:58:05.438Z,9.44
2018-11-29T03:59:14.107Z,9.45
2018-11-29T04:00:22.774Z,9.45
2018-11-29T04:01:31.451Z,9.45
2018-11-29T04:02:40.126Z,9.47
2018-11-29T04:03:48.824Z,9.49
2018-11-29T04:04:57.755Z,9.42
2018-11-29T04:06:06.422Z,9.42
2018-11-29T04:07:15.354Z,9.47
2018-11-29T04:08:24.280Z,9.42
2018-11-29T04:09:33.215Z,9.45
2018-11-29T04:10:42.148Z,9.44
2018-11-29T04:11:50.822Z,9.45
2018-11-29T04:12:59.505Z,9.49
2018-11-29T04:14:08.437Z,9.42
2018-11-29T04:15:17.409Z,9.44
2018-11-29T04:16:26.333Z,9.49
2018-11-29T04:17:40.538Z,9.45
2018-11-29T04:18:49.612Z,9.48
2018-11-29T04:19:58.293Z,9.45
2018-11-29T04:21:06.968Z,9.4
2018-11-29T04:22:15.646Z,9.51
2018-11-29T04:23:24.569Z,9.52
2018-11-29T04:24:33.260Z,9.45
2018-11-29T04:25:41.988Z,9.52
2018-11-29T04:26:50.663Z,9.45
2018-11-29T04:27:59.333Z,9.49
2018-11-29T04:29:08.008Z,9.45
2018-11-29T04:30:16.942Z,9.54
2018-11-29T04:31:25.639Z,9.49
2018-11-29T04:32:34.322Z,9.51
2018-11-29T04:33:43.254Z,9.63
2018-11-29T04:34:51.928Z,9.56
2018-11-29T04:36:00.880Z,9.59
2018-11-29T04:37:09.808Z,9.55
2018-11-29T04:38:18.480Z,9.59
2018-11-29T04:39:27.431Z,9.63
2018-11-29T04:40:36.095Z,9.62
2018-11-29T04:41:44.779Z,9.64
2018-11-29T04:42:53.442Z,9.59
2018-11-29T04:44:02.250Z,9.67
2018-11-29T04:45:11.435Z,9.59
2018-11-29T04:46:20.120Z,9.62
2018-11-29T04:47:28.796Z,9.62
2018-11-29T04:48:37.480Z,9.66
2018-11-29T04:49:46.161Z,9.63
2018-11-29T04:50:54.837Z,9.62
2018-11-29T04:52:03.542Z,9.64
2018-11-29T04:53:12.457Z,9.63
2018-11-29T04:54:21.146Z,9.56
2018-11-29T04:55:30.335Z,9.62
2018-11-29T04:56:39.014Z,9.66
2018-11-29T04:57:47.697Z,9.63
2018-11-29T04:58:56.390Z,9.59
2018-11-29T05:00:05.065Z,9.63
2018-11-29T05:01:13.743Z,9.62
2018-11-29T05:02:22.404Z,9.59
2018-11-29T05:03:31.089Z,9.51
2018-11-29T05:04:40.019Z,9.49
2018-11-29T05:05:48.703Z,9.42
2018-11-29T05:06:57.381Z,9.47
2018-11-29T05:08:06.309Z,9.4
2018-11-29T05:09:14.988Z,9.42
2018-11-29T05:10:23.654Z,9.44
2018-11-29T05:11:32.334Z,9.47
2018-11-29T05:12:41.015Z,9.47
2018-11-29T05:13:49.965Z,9.49
2018-11-29T05:14:58.640Z,9.45
2018-11-29T05:16:07.576Z,9.44
2018-11-29T05:17:16.499Z,9.44
2018-11-29T05:18:25.171Z,9.45
2018-11-29T05:19:34.361Z,9.48
2018-11-29T05:20:43.044Z,9.45
2018-11-29T05:21:51.725Z,9.44
2018-11-29T05:23:00.404Z,9.44
2018-11-29T05:24:09.076Z,9.42
2018-11-29T05:25:19.383Z,9.47
2018-11-29T05:26:28.083Z,9.45
2018-11-29T05:27:36.757Z,9.52
2018-11-29T05:28:45.692Z,9.55
2018-11-29T05:29:54.351Z,9.47
2018-11-29T05:31:03.303Z,9.54
2018-11-29T05:32:12.226Z,9.64
2018-11-29T05:33:20.899Z,9.63
2018-11-29T05:34:29.820Z,9.62
2018-11-29T05:35:38.510Z,9.59
2018-11-29T05:36:47.182Z,9.62
2018-11-29T05:37:56.126Z,9.59
2018-11-29T05:39:04.792Z,9.56
2018-11-29T05:40:13.480Z,9.66
2018-11-29T05:41:22.171Z,9.63
2018-11-29T05:42:30.838Z,9.58
2018-11-29T05:43:39.505Z,9.63
2018-11-29T05:44:48.194Z,9.63
2018-11-29T05:45:56.868Z,9.64
2018-11-29T05:47:05.539Z,9.66
2018-11-29T05:48:14.200Z,9.66
2018-11-29T05:49:22.885Z,9.62
2018-11-29T05:50:31.550Z,9.63
2018-11-29T05:51:40.221Z,9.59
2018-11-29T05:52:48.882Z,9.63
2018-11-29T05:53:57.571Z,9.62
2018-11-29T05:55:06.243Z,9.62
2018-11-29T05:56:14.922Z,9.63
2018-11-29T05:57:23.840Z,9.59
2018-11-29T05:58:32.529Z,9.62
2018-11-29T05:59:41.201Z,9.59
2018-11-29T06:00:49.875Z,9.64
2018-11-29T06:01:58.815Z,9.54
2018-11-29T06:03:07.481Z,9.59
2018-11-29T06:04:16.161Z,9.47
2018-11-29T06:05:24.833Z,9.51
2018-11-29T06:06:33.513Z,9.49
2018-11-29T06:07:42.176Z,9.56
2018-11-29T06:08:50.851Z,9.39
2018-11-29T06:09:59.514Z,9.42
2018-11-29T06:11:08.191Z,9.47
2018-11-29T06:12:16.879Z,9.44
2018-11-29T06:13:25.801Z,9.45
2018-11-29T06:14:34.468Z,9.34
2018-11-29T06:15:43.406Z,9.3
2018-11-29T06:16:52.078Z,9.4
2018-11-29T06:18:00.749Z,9.31
2018-11-29T06:19:09.420Z,9.31
2018-11-29T06:20:18.090Z,9.31
2018-11-29T06:21:27.033Z,9.33
2018-11-29T06:22:35.699Z,9.15
2018-11-29T06:23:44.372Z,9.18
2018-11-29T06:24:53.037Z,9.26
2018-11-29T06:26:01.715Z,9.22
2018-11-29T06:27:10.389Z,9.24
2018-11-29T06:28:19.072Z,9.21
2018-11-29T06:29:27.939Z,9.21
2018-11-29T06:30:36.809Z,9.08
2018-11-29T06:31:45.479Z,9.12
2018-11-29T06:32:54.628Z,9.08
2018-11-29T06:34:03.303Z,9.08
2018-11-29T06:35:12.512Z,9.18
2018-11-29T06:36:21.643Z,9.05
2018-11-29T06:37:30.321Z,9.02
2018-11-29T06:38:39.246Z,9.11
2018-11-29T06:39:47.906Z,9.15
2018-11-29T06:40:56.581Z,9.09
2018-11-29T06:42:05.248Z,9.11
2018-11-29T06:43:13.929Z,9.11
2018-11-29T06:44:22.723Z,9.11
2018-11-29T06:45:31.552Z,9.09
2018-11-29T06:46:40.261Z,9.03
2018-11-29T06:47:48.936Z,9.05
2018-11-29T06:48:57.621Z,9.09
2018-11-29T06:50:06.296Z,9
2018-11-29T06:51:14.960Z,9.05
2018-11-29T06:52:23.638Z,9.12
2018-11-29T06:53:32.314Z,9.08
2018-11-29T06:54:40.987Z,9.08
2018-11-29T06:55:49.656Z,9.02
2018-11-29T06:56:58.326Z,9
2018-11-29T06:58:07.012Z,9.05
2018-11-29T06:59:15.936Z,9
2018-11-29T07:00:24.602Z,9
2018-11-29T07:01:33.266Z,9.03
2018-11-29T07:02:41.939Z,9.08
2018-11-29T07:03:50.619Z,8.99
2018-11-29T07:04:59.540Z,8.99
2018-11-29T07:06:08.205Z,8.97
2018-11-29T07:07:16.906Z,8.97
2018-11-29T07:08:25.828Z,9
2018-11-29T07:09:34.497Z,8.97
2018-11-29T07:10:43.174Z,8.99
2018-11-29T07:11:51.851Z,9.03
2018-11-29T07:13:00.525Z,9
2018-11-29T07:14:09.201Z,8.99
2018-11-29T07:15:17.875Z,8.9
2018-11-29T07:16:26.542Z,8.95
2018-11-29T07:17:35.211Z,8.92
2018-11-29T07:18:43.877Z,8.92
2018-11-29T07:19:52.561Z,8.95
2018-11-29T07:21:01.233Z,8.95
2018-11-29T07:22:10.417Z,8.92
2018-11-29T07:23:19.084Z,8.9
2018-11-29T07:24:27.767Z,8.97
2018-11-29T07:25:36.438Z,9
2018-11-29T07:26:45.119Z,8.93
2018-11-29T07:27:53.786Z,8.96
2018-11-29T07:29:02.465Z,8.9
2018-11-29T07:30:11.141Z,8.86
2018-11-29T07:31:19.814Z,8.99
2018-11-29T07:32:28.502Z,9.05
2018-11-29T07:33:37.176Z,9
2018-11-29T07:34:47.021Z,8.96
2018-11-29T07:35:55.691Z,9.02
2018-11-29T07:37:04.361Z,9.02
2018-11-29T07:38:13.028Z,9.02
2018-11-29T07:39:21.966Z,9.09
2018-11-29T07:40:30.641Z,9.12
2018-11-29T07:41:39.582Z,9.11
2018-11-29T07:42:48.804Z,9.09
2018-11-29T07:43:57.489Z,9.03
2018-11-29T07:45:06.165Z,9.18
2018-11-29T07:46:14.841Z,9.11
2018-11-29T07:47:23.911Z,9.18
2018-11-29T07:48:32.632Z,9.12
2018-11-29T07:49:41.307Z,9.21
2018-11-29T07:50:49.997Z,9.19
2018-11-29T07:51:59.025Z,9.21
2018-11-29T07:53:07.695Z,9.22
2018-11-29T07:54:16.484Z,9.22
2018-11-29T07:55:25.152Z,9.31
2018-11-29T07:56:33.835Z,9.24
2018-11-29T07:57:42.513Z,9.24
2018-11-29T07:58:55.838Z,9.36
2018-11-29T08:00:04.519Z,9.34
2018-11-29T08:01:13.207Z,9.36
2018-11-29T08:02:21.883Z,9.34
2018-11-29T08:03:30.565Z,9.34
2018-11-29T08:04:39.273Z,9.33
2018-11-29T08:05:47.952Z,9.42
2018-11-29T08:06:56.639Z,9.42
2018-11-29T08:08:05.327Z,9.39
2018-11-29T08:09:13.998Z,9.47
2018-11-29T08:10:22.670Z,9.48
2018-11-29T08:11:31.347Z,9.47
2018-11-29T08:12:40.014Z,9.37
2018-11-29T08:13:48.693Z,9.42
2018-11-29T08:14:57.355Z,9.51
2018-11-29T08:16:06.040Z,9.39
2018-11-29T08:17:14.721Z,9.44
2018-11-29T08:18:23.405Z,9.44
2018-11-29T08:19:32.322Z,9.42
2018-11-29T08:20:41.011Z,9.45
2018-11-29T08:21:49.932Z,9.47
2018-11-29T08:22:58.604Z,9.52
2018-11-29T08:24:07.270Z,9.51
2018-11-29T08:25:15.940Z,9.49
2018-11-29T08:26:24.614Z,9.56
2018-11-29T08:27:33.299Z,9.52
2018-11-29T08:28:41.971Z,9.49
2018-11-29T08:29:50.632Z,9.47
2018-11-29T08:30:59.577Z,9.54
2018-11-29T08:32:08.253Z,9.49
2018-11-29T08:33:16.942Z,9.54
2018-11-29T08:34:25.670Z,9.58
2018-11-29T08:35:34.350Z,9.63
2018-11-29T08:36:43.017Z,9.62
2018-11-29T08:37:51.953Z,9.66
2018-11-29T08:39:00.623Z,9.66
2018-11-29T08:40:09.303Z,9.64
2018-11-29T08:41:17.968Z,9.62
2018-11-29T08:42:26.964Z,9.64
2018-11-29T08:43:35.821Z,9.67
2018-11-29T08:44:44.508Z,9.69
2018-11-29T08:45:53.191Z,9.74
2018-11-29T08:47:01.865Z,9.72
2018-11-29T08:48:10.813Z,9.77
2018-11-29T08:49:19.490Z,9.76
2018-11-29T08:50:28.461Z,9.77
2018-11-29T08:51:37.128Z,9.8
2018-11-29T08:52:45.812Z,9.74
2018-11-29T08:53:54.485Z,9.76
2018-11-29T08:55:03.158Z,9.8
2018-11-29T08:56:11.836Z,9.72
2018-11-29T08:57:20.517Z,9.81
2018-11-29T08:58:29.192Z,9.74
2018-11-29T08:59:37.870Z,9.77
2018-11-29T09:00:46.797Z,9.77
2018-11-29T09:01:55.484Z,9.81
2018-11-29T09:03:04.175Z,9.85
2018-11-29T09:04:12.855Z,9.81
2018-11-29T09:05:21.531Z,9.82
2018-11-29T09:06:30.461Z,9.81
2018-11-29T09:07:39.137Z,9.77
2018-11-29T09:08:47.811Z,9.81
2018-11-29T09:09:56.492Z,9.81
2018-11-29T09:11:05.165Z,9.81
2018-11-29T09:12:13.838Z,9.87
2018-11-29T09:13:22.534Z,9.92
2018-11-29T09:14:31.348Z,9.88
2018-11-29T09:15:40.016Z,9.87
2018-11-29T09:16:48.697Z,9.94
2018-11-29T09:17:57.381Z,9.88
2018-11-29T09:19:06.056Z,9.88
2018-11-29T09:20:14.738Z,9.9
2018-11-29T09:21:23.451Z,9.94
2018-11-29T09:22:32.125Z,9.88
2018-11-29T09:23:40.810Z,9.87
2018-11-29T09:24:49.736Z,9.87
2018-11-29T09:25:58.406Z,9.95
2018-11-29T09:27:07.159Z,9.95
2018-11-29T09:28:15.832Z,10.02
2018-11-29T09:29:24.571Z,9.97
2018-11-29T09:30:33.242Z,9.99
2018-11-29T09:31:41.917Z,9.99
2018-11-29T09:32:50.588Z,9.95
2018-11-29T09:33:59.524Z,9.9
2018-11-29T09:35:08.205Z,10.03
2018-11-29T09:36:16.894Z,10.02
2018-11-29T09:37:26.387Z,9.95
2018-11-29T09:38:35.060Z,10
2018-11-29T09:39:43.731Z,10.03
2018-11-29T09:40:52.658Z,10.07
2018-11-29T09:42:02.947Z,10.05
2018-11-29T09:43:11.725Z,10.05
2018-11-29T09:44:20.400Z,10.07
2018-11-29T09:45:29.332Z,10.07
2018-11-29T09:46:38.000Z,10.06
2018-11-29T09:47:46.678Z,10.17
2018-11-29T09:48:55.349Z,10.07
2018-11-29T09:50:04.049Z,10.2
2018-11-29T09:51:12.985Z,10.07
2018-11-29T09:52:21.681Z,10.24
2018-11-29T09:53:30.346Z,10.18
2018-11-29T09:54:39.925Z,10.15
2018-11-29T09:55:48.592Z,10.15
2018-11-29T09:56:57.530Z,10.21
2018-11-29T09:58:06.208Z,10.21
2018-11-29T09:59:15.138Z,10.17
2018-11-29T10:00:30.232Z,10.18
2018-11-29T10:01:38.903Z,10.21
2018-11-29T10:02:47.571Z,10.25
2018-11-29T10:03:56.245Z,10.23
2018-11-29T10:05:04.938Z,10.28
2018-11-29T10:06:13.867Z,10.31
2018-11-29T10:07:22.548Z,10.34
2018-11-29T10:08:31.223Z,10.34
2018-11-29T10:09:39.927Z,10.38
2018-11-29T10:10:48.598Z,10.42
2018-11-29T10:11:57.278Z,10.45
2018-11-29T10:13:05.955Z,10.43
2018-11-29T10:14:14.636Z,10.51
2018-11-29T10:15:23.323Z,10.46
2018-11-29T10:16:32.003Z,10.45
2018-11-29T10:17:40.678Z,10.57
2018-11-29T10:18:49.350Z,10.43
2018-11-29T10:19:58.044Z,10.55
2018-11-29T10:21:06.712Z,10.58
2018-11-29T10:22:16.115Z,10.61
2018-11-29T10:23:24.937Z,10.64
2018-11-29T10:24:33.617Z,10.64
2018-11-29T10:25:42.292Z,10.61
2018-11-29T10:26:50.988Z,10.62
2018-11-29T10:27:59.654Z,10.69
2018-11-29T10:29:08.579Z,10.72
2018-11-29T10:30:17.251Z,10.75
2018-11-29T10:31:25.931Z,10.72
2018-11-29T10:32:34.599Z,10.71
2018-11-29T10:33:43.284Z,10.65
2018-11-29T10:34:51.959Z,10.72
2018-11-29T10:36:03.719Z,10.79
2018-11-29T10:37:12.394Z,10.72
2018-11-29T10:38:21.343Z,10.69
2018-11-29T10:39:30.349Z,10.8
2018-11-29T10:40:39.056Z,10.76
2018-11-29T10:41:47.758Z,10.72
2018-11-29T10:42:56.423Z,10.72
2018-11-29T10:44:05.363Z,10.77
2018-11-29T10:45:14.031Z,10.72
2018-11-29T10:46:22.723Z,10.79
2018-11-29T10:47:31.392Z,10.77
2018-11-29T10:48:40.069Z,10.72
2018-11-29T10:49:48.745Z,10.77
2018-11-29T10:50:57.428Z,10.77
2018-11-29T10:52:06.120Z,10.76
2018-11-29T10:53:14.792Z,10.83
2018-11-29T10:54:23.481Z,10.82
2018-11-29T10:55:32.154Z,10.86
2018-11-29T10:56:41.349Z,10.84
2018-11-29T10:57:50.024Z,10.86
2018-11-29T10:58:58.959Z,10.84
2018-11-29T11:00:07.639Z,10.87
2018-11-29T11:01:16.581Z,10.8
2018-11-29T11:02:25.258Z,10.84
2018-11-29T11:03:33.945Z,10.89
2018-11-29T11:04:42.705Z,10.92
2018-11-29T11:05:51.656Z,10.86
2018-11-29T11:07:00.596Z,10.89
2018-11-29T11:08:12.854Z,10.97
2018-11-29T11:09:21.773Z,10.94
2018-11-29T11:10:30.446Z,10.87
2018-11-29T11:11:39.129Z,10.95
2018-11-29T11:12:47.852Z,10.92
2018-11-29T11:13:56.542Z,10.92
2018-11-29T11:15:05.211Z,10.97
2018-11-29T11:16:14.561Z,10.95
2018-11-29T11:17:23.302Z,11
2018-11-29T11:18:31.984Z,10.97
2018-11-29T11:19:40.661Z,10.86
2018-11-29T11:20:49.346Z,10.87
2018-11-29T11:21:58.036Z,10.98
2018-11-29T11:23:06.729Z,10.92
2018-11-29T11:24:15.405Z,10.9
2018-11-29T11:25:24.086Z,10.98
2018-11-29T11:26:32.763Z,10.89
2018-11-29T11:27:41.861Z,10.84
2018-11-29T11:28:50.534Z,10.98
2018-11-29T11:29:59.212Z,10.98
2018-11-29T11:31:08.007Z,10.92
2018-11-29T11:32:16.748Z,10.97
2018-11-29T11:33:25.694Z,11
2018-11-29T11:34:34.666Z,11.01
2018-11-29T11:35:43.608Z,11.01
2018-11-29T11:36:52.271Z,11.02
2018-11-29T11:38:00.961Z,11.05
2018-11-29T11:39:09.633Z,11.13
2018-11-29T11:40:18.316Z,11.18
2018-11-29T11:41:26.980Z,11.08
2018-11-29T11:42:35.665Z,11.15
2018-11-29T11:43:44.370Z,11.15
2018-11-29T11:44:53.049Z,11.23
2018-11-29T11:46:01.811Z,11.19
2018-11-29T11:47:10.517Z,11.23
2018-11-29T11:48:19.204Z,11.27
2018-11-29T11:49:27.886Z,11.18
2018-11-29T11:50:36.569Z,11.31
2018-11-29T11:51:45.229Z,11.27
2018-11-29T11:52:54.071Z,11.26
2018-11-29T11:54:02.744Z,11.38
2018-11-29T11:55:11.425Z,11.3
2018-11-29T11:56:25.710Z,11.3
2018-11-29T11:57:34.395Z,11.3
2018-11-29T11:58:43.321Z,11.26
2018-11-29T11:59:52.010Z,11.38
2018-11-29T12:01:00.673Z,11.37
2018-11-29T12:02:09.357Z,11.33
2018-11-29T12:03:18.085Z,11.44
2018-11-29T12:04:26.779Z,11.51
2018-11-29T12:05:35.714Z,11.45
2018-11-29T12:06:44.381Z,11.53
2018-11-29T12:07:53.060Z,11.53
2018-11-29T12:09:01.781Z,11.51
2018-11-29T12:10:10.510Z,11.51
2018-11-29T12:11:19.340Z,11.56
2018-11-29T12:12:28.031Z,11.55
2018-11-29T12:13:36.696Z,11.53
2018-11-29T12:14:45.442Z,11.56
2018-11-29T12:15:54.617Z,11.6
2018-11-29T12:17:03.292Z,11.59
2018-11-29T12:18:12.208Z,11.65
2018-11-29T12:19:21.150Z,11.6
2018-11-29T12:20:29.918Z,11.58
2018-11-29T12:21:38.734Z,11.56
2018-11-29T12:22:47.839Z,11.55
2018-11-29T12:23:56.984Z,11.53
2018-11-29T12:25:05.760Z,11.56
2018-11-29T12:26:14.465Z,11.53
2018-11-29T12:27:23.224Z,11.52
2018-11-29T12:28:31.891Z,11.67
2018-11-29T12:29:40.573Z,11.55
2018-11-29T12:30:49.243Z,11.59
2018-11-29T12:31:57.941Z,11.59
2018-11-29T12:33:06.674Z,11.55
2018-11-29T12:34:15.354Z,11.56
2018-11-29T12:35:24.025Z,11.45
2018-11-29T12:36:32.716Z,11.49
2018-11-29T12:37:41.898Z,11.43
2018-11-29T12:38:50.903Z,11.45
2018-11-29T12:39:59.579Z,11.43
2018-11-29T12:41:08.513Z,11.52
2018-11-29T12:42:17.199Z,11.49
2018-11-29T12:43:25.879Z,11.44
2018-11-29T12:44:34.816Z,11.41
2018-11-29T12:45:43.492Z,11.4
2018-11-29T12:46:52.500Z,11.45
2018-11-29T12:48:01.172Z,11.38
2018-11-29T12:49:09.858Z,11.43
2018-11-29T12:50:18.556Z,11.27
2018-11-29T12:51:27.244Z,11.31
2018-11-29T12:52:35.920Z,11.38
2018-11-29T12:53:44.597Z,11.35
2018-11-29T12:54:53.270Z,11.33
2018-11-29T12:56:01.950Z,11.33
2018-11-29T12:57:10.638Z,11.33
2018-11-29T12:58:19.332Z,11.3
2018-11-29T12:59:28.005Z,11.27
2018-11-29T13:00:36.687Z,11.26
2018-11-29T13:01:45.379Z,11.25
2018-11-29T13:02:54.061Z,11.22
2018-11-29T13:04:03.018Z,11.23
2018-11-29T13:05:11.953Z,11.2
2018-11-29T13:06:20.633Z,11.2
2018-11-29T13:07:29.555Z,11.1
2018-11-29T13:08:38.238Z,11.15
2018-11-29T13:09:46.912Z,11.1
2018-11-29T13:10:55.586Z,11.02
2018-11-29T13:12:04.320Z,11
2018-11-29T13:13:13.001Z,10.97
2018-11-29T13:14:21.957Z,10.97
2018-11-29T13:15:31.160Z,10.95
2018-11-29T13:16:40.123Z,10.9
2018-11-29T13:17:48.826Z,10.86
2018-11-29T13:18:57.505Z,10.89
2018-11-29T13:20:06.185Z,10.82
2018-11-29T13:21:14.863Z,10.77
2018-11-29T13:22:23.546Z,10.69
2018-11-29T13:23:32.234Z,10.69
2018-11-29T13:24:40.911Z,10.72
2018-11-29T13:25:49.592Z,10.65
2018-11-29T13:26:58.519Z,10.67
2018-11-29T13:28:07.209Z,10.65
2018-11-29T13:29:15.886Z,10.58
2018-11-29T13:30:24.575Z,10.61
2018-11-29T13:31:33.257Z,10.58
2018-11-29T13:32:41.930Z,10.61
2018-11-29T13:33:50.843Z,10.64
2018-11-29T13:34:59.515Z,10.62
2018-11-29T13:36:08.193Z,10.64
2018-11-29T13:37:17.202Z,10.61
2018-11-29T13:38:26.021Z,10.51
2018-11-29T13:39:34.799Z,10.55
2018-11-29T13:40:43.973Z,10.51
2018-11-29T13:41:52.795Z,10.57
2018-11-29T13:43:01.616Z,10.53
2018-11-29T13:44:10.294Z,10.57
2018-11-29T13:45:19.241Z,10.57
2018-11-29T13:46:27.924Z,10.55
2018-11-29T13:47:36.604Z,10.58
2018-11-29T13:48:45.595Z,10.61
2018-11-29T13:49:54.272Z,10.67
2018-11-29T13:51:02.956Z,10.62
2018-11-29T13:52:11.688Z,10.65
2018-11-29T13:53:20.379Z,10.53
2018-11-29T13:54:29.066Z,10.55
2018-11-29T13:55:38.327Z,10.55
2018-11-29T13:56:47.525Z,10.55
2018-11-29T13:57:56.536Z,10.58
2018-11-29T13:59:05.322Z,10.65
2018-11-29T14:00:13.996Z,10.65
2018-11-29T14:01:22.676Z,10.61
2018-11-29T14:02:31.576Z,10.68
2018-11-29T14:03:40.259Z,10.65
2018-11-29T14:04:48.982Z,10.62
2018-11-29T14:05:57.655Z,10.65
2018-11-29T14:07:06.340Z,10.75
2018-11-29T14:08:15.078Z,10.76
2018-11-29T14:09:23.758Z,10.72
2018-11-29T14:10:32.447Z,10.75
2018-11-29T14:11:41.134Z,10.79
2018-11-29T14:12:49.839Z,10.76
2018-11-29T14:13:58.524Z,10.75
2018-11-29T14:15:07.467Z,10.76
2018-11-29T14:16:16.173Z,10.69
2018-11-29T14:17:24.880Z,10.72
2018-11-29T14:18:33.560Z,10.71
2018-11-29T14:19:42.243Z,10.79
2018-11-29T14:20:50.917Z,10.76
2018-11-29T14:21:59.659Z,10.77
2018-11-29T14:23:08.392Z,10.69
2018-11-29T14:24:17.069Z,10.71
2018-11-29T14:25:26.008Z,10.69
2018-11-29T14:26:34.684Z,10.68
2018-11-29T14:27:43.467Z,10.71
2018-11-29T14:28:52.143Z,10.76
2018-11-29T14:30:00.881Z,10.67
2018-11-29T14:31:09.801Z,10.69
2018-11-29T14:32:18.504Z,10.64
2018-11-29T14:33:27.946Z,10.72
2018-11-29T14:34:36.619Z,10.67
2018-11-29T14:35:45.547Z,10.57
2018-11-29T14:36:54.211Z,10.65
2018-11-29T14:38:02.898Z,10.59
2018-11-29T14:39:11.573Z,10.67
2018-11-29T14:40:20.255Z,10.62
2018-11-29T14:41:28.969Z,10.65
2018-11-29T14:42:37.653Z,10.59
2018-11-29T14:43:46.332Z,10.58
2018-11-29T14:44:55.016Z,10.58
2018-11-29T14:46:03.810Z,10.59
2018-11-29T14:47:12.489Z,10.64
2018-11-29T14:48:21.203Z,10.69
2018-11-29T14:49:29.886Z,10.55
2018-11-29T14:50:38.621Z,10.65
2018-11-29T14:53:52.085Z,10.53
2018-11-29T14:55:01.011Z,10.48
2018-11-29T14:56:09.718Z,10.53
2018-11-29T14:57:18.558Z,10.45
2018-11-29T14:58:27.228Z,10.53
2018-11-29T14:59:35.912Z,10.57
2018-11-29T15:00:44.586Z,10.53
2018-11-29T15:01:53.591Z,10.46
2018-11-29T15:03:02.304Z,10.41
2018-11-29T15:04:11.030Z,10.45
2018-11-29T15:05:19.985Z,10.41
2018-11-29T15:06:28.698Z,10.39
2018-11-29T15:07:37.417Z,10.34
2018-11-29T15:08:46.158Z,10.36
2018-11-29T15:09:55.076Z,10.33